Terminal Aerodrome Forecast
Issued by NWS Wilmington, NC

Home | Current Version | Previous Version | Text Only | Print | Product List | Glossary On
Versions: 1 2 3 4 5 6 7 8 9 10 11 12 13
000
FTUS42 KILM 252328
TAFILM
TAF
KILM 252328Z 2600/2624 15008KT P6SM FEW040
      TEMPO 2609/2611 5SM BR SCT007
     FM261300 VRB04KT P6SM SCT050 SCT100
     FM261700 15011G18KT P6SM SCT120 SCT250=

USA.gov is the U.S. government's official web portal to all federal, state and local government web resources and services.